createdAt,value
2023-03-25T00:00:18.205Z,96.32
2023-03-25T00:02:49.353Z,95.78
2023-03-25T00:05:20.351Z,96.01
2023-03-25T00:07:52.375Z,96.28
2023-03-25T00:10:19.899Z,97.19
2023-03-25T00:12:47.437Z,96.37
2023-03-25T00:15:16.596Z,96.22
2023-03-25T00:17:44.374Z,96.70
2023-03-25T00:20:12.736Z,96.80
2023-03-25T00:22:42.715Z,97.09
2023-03-25T00:25:16.581Z,98.02
2023-03-25T00:27:46.569Z,98.58
2023-03-25T00:30:16.692Z,98.67
2023-03-25T00:32:50.350Z,98.29
2023-03-25T00:35:19.894Z,98.19
2023-03-25T00:37:52.453Z,98.52
2023-03-25T00:40:19.807Z,99.91
2023-03-25T00:42:50.318Z,98.57
2023-03-25T00:45:17.675Z,99.04
2023-03-25T00:47:45.108Z,99.14
2023-03-25T00:50:12.862Z,99.41
2023-03-25T00:52:40.528Z,99.55
2023-03-25T00:55:08.634Z,100.00
2023-03-25T00:57:36.570Z,100.00
2023-03-25T01:00:08.647Z,100.00
2023-03-25T01:02:36.264Z,100.00
2023-03-25T01:05:04.455Z,99.14
2023-03-25T01:07:32.293Z,98.47
2023-03-25T01:10:00.343Z,98.97
2023-03-25T01:12:27.961Z,99.29
2023-03-25T01:14:55.252Z,100.00
2023-03-25T01:38:09.212Z,100.00
2023-03-25T01:40:36.433Z,100.00
2023-03-25T01:43:03.630Z,100.00
2023-03-25T01:45:35.171Z,100.00
2023-03-25T02:06:59.803Z,100.00
2023-03-25T02:09:30.046Z,100.00
2023-03-25T02:11:57.216Z,100.00
2023-03-25T02:14:32.583Z,100.00
2023-03-25T02:17:35.628Z,100.00
2023-03-25T02:20:49.382Z,100.00
2023-03-25T02:23:28.554Z,100.00
2023-03-25T02:26:29.851Z,100.00
2023-03-25T02:29:12.823Z,100.00
2023-03-25T02:32:18.802Z,100.00
2023-03-25T02:35:26.948Z,100.00
2023-03-25T02:38:24.871Z,100.00
2023-03-25T02:41:30.399Z,100.00
2023-03-25T02:44:45.326Z,100.00
2023-03-25T02:47:19.812Z,100.00
2023-03-25T02:50:27.549Z,100.00
2023-03-25T02:53:02.802Z,100.00
2023-03-25T02:55:31.669Z,100.00
2023-03-25T02:58:01.810Z,100.00
2023-03-25T03:00:30.434Z,100.00
2023-03-25T03:03:04.585Z,100.00
2023-03-25T03:05:49.033Z,100.00
2023-03-25T03:08:56.989Z,100.00
2023-03-25T03:11:55.952Z,100.00
2023-03-25T03:15:01.307Z,100.00
2023-03-25T03:17:52.322Z,100.00
2023-03-25T03:20:55.751Z,100.00
2023-03-25T03:23:37.194Z,100.00
2023-03-25T03:26:18.540Z,100.00
2023-03-25T03:28:55.589Z,100.00
2023-03-25T03:31:50.729Z,100.00
2023-03-25T03:34:36.664Z,100.00
2023-03-25T03:37:05.900Z,100.00
2023-03-25T03:39:36.992Z,100.00
2023-03-25T03:42:27.626Z,100.00
2023-03-25T03:45:02.848Z,100.00
2023-03-25T03:47:36.900Z,100.00
2023-03-25T03:50:10.936Z,100.00
2023-03-25T03:52:51.135Z,100.00
2023-03-25T03:55:30.562Z,100.00
2023-03-25T03:58:06.949Z,100.00
2023-03-25T04:00:51.141Z,100.00
2023-03-25T04:03:30.474Z,100.00
2023-03-25T04:06:21.187Z,100.00
2023-03-25T04:09:00.327Z,100.00
2023-03-25T04:11:44.609Z,100.00
2023-03-25T04:14:13.514Z,100.00
2023-03-25T04:16:41.567Z,100.00
2023-03-25T04:19:09.501Z,100.00
2023-03-25T04:21:36.567Z,100.00
2023-03-25T04:24:04.829Z,100.00
2023-03-25T04:26:34.302Z,100.00
2023-03-25T04:29:02.457Z,100.00
2023-03-25T04:31:33.500Z,100.00
2023-03-25T04:34:02.698Z,100.00
2023-03-25T04:36:33.893Z,100.00
2023-03-25T04:39:01.593Z,100.00
2023-03-25T04:41:29.329Z,100.00
2023-03-25T04:43:56.414Z,100.00
2023-03-25T04:46:23.986Z,100.00
2023-03-25T04:48:53.862Z,100.00
2023-03-25T04:51:23.403Z,100.00
2023-03-25T04:53:50.647Z,100.00
2023-03-25T04:56:18.962Z,100.00
2023-03-25T04:58:46.658Z,100.00
2023-03-25T05:01:32.621Z,100.00
2023-03-25T05:04:06.806Z,100.00
2023-03-25T05:06:35.523Z,100.00
2023-03-25T05:09:05.256Z,100.00
2023-03-25T05:11:34.623Z,100.00
2023-03-25T05:14:01.779Z,100.00
2023-03-25T05:16:29.553Z,100.00
2023-03-25T05:18:56.658Z,100.00
2023-03-25T05:21:23.966Z,100.00
2023-03-25T05:23:52.712Z,100.00
2023-03-25T05:26:20.910Z,100.00
2023-03-25T05:28:51.488Z,100.00
2023-03-25T05:31:19.223Z,100.00
2023-03-25T05:33:46.374Z,100.00
2023-03-25T05:36:16.480Z,100.00
2023-03-25T05:38:44.548Z,100.00
2023-03-25T05:41:16.560Z,100.00
2023-03-25T05:43:47.532Z,100.00
2023-03-25T05:46:15.637Z,100.00
2023-03-25T05:48:43.134Z,100.00
2023-03-25T05:51:21.783Z,100.00
2023-03-25T05:53:50.097Z,100.00
2023-03-25T05:56:19.820Z,100.00
2023-03-25T05:58:48.771Z,100.00
2023-03-25T06:01:32.113Z,100.00
2023-03-25T06:04:01.894Z,100.00
2023-03-25T06:06:30.229Z,100.00
2023-03-25T06:08:57.858Z,100.00
2023-03-25T06:11:24.947Z,100.00
2023-03-25T06:13:52.181Z,99.54
2023-03-25T06:16:22.573Z,99.64
2023-03-25T06:18:56.406Z,99.39
2023-03-25T06:21:24.276Z,99.95
2023-03-25T06:23:51.733Z,98.24
2023-03-25T06:26:20.479Z,96.89
2023-03-25T06:28:48.510Z,96.12
2023-03-25T06:31:22.709Z,95.21
2023-03-25T06:33:51.326Z,93.86
2023-03-25T06:36:20.428Z,92.78
2023-03-25T06:38:51.073Z,88.01
2023-03-25T06:41:20.509Z,85.45
2023-03-25T06:43:49.144Z,84.22
2023-03-25T06:46:17.075Z,85.17
2023-03-25T06:48:44.379Z,85.03
2023-03-25T06:51:11.877Z,85.39
2023-03-25T06:53:39.160Z,85.98
2023-03-25T06:56:07.021Z,85.95
2023-03-25T06:58:37.277Z,85.76
2023-03-25T07:01:07.707Z,84.11
2023-03-25T07:03:36.801Z,85.27
2023-03-25T07:06:06.546Z,85.38
2023-03-25T07:08:34.322Z,85.33
2023-03-25T07:11:07.695Z,84.78
2023-03-25T07:13:35.386Z,84.36
2023-03-25T07:16:03.271Z,84.08
2023-03-25T07:18:30.971Z,80.55
2023-03-25T07:20:58.321Z,77.70
2023-03-25T07:23:25.795Z,73.75
2023-03-25T07:25:53.537Z,70.19
2023-03-25T07:28:20.791Z,61.39
2023-03-25T07:30:47.965Z,60.00
2023-03-25T07:33:15.564Z,58.33
2023-03-25T07:35:42.858Z,55.36
2023-03-25T07:38:10.228Z,52.86
2023-03-25T07:40:37.787Z,51.53
2023-03-25T07:43:05.407Z,51.06
2023-03-25T07:45:44.615Z,51.88
2023-03-25T07:48:14.944Z,52.37
2023-03-25T07:50:43.471Z,51.83
2023-03-25T07:53:11.741Z,50.22
2023-03-25T07:55:38.952Z,48.75
2023-03-25T07:58:06.071Z,46.39
2023-03-25T08:00:33.524Z,45.27
2023-03-25T08:03:00.883Z,46.84
2023-03-25T08:05:28.377Z,45.78
2023-03-25T08:07:55.724Z,46.03
2023-03-25T08:10:22.874Z,44.36
2023-03-25T08:12:56.556Z,43.07
2023-03-25T08:15:24.970Z,42.22
2023-03-25T08:17:52.638Z,41.95
2023-03-25T08:20:20.826Z,41.92
2023-03-25T08:22:48.228Z,41.13
2023-03-25T08:25:15.433Z,43.13
2023-03-25T08:27:42.507Z,44.52
2023-03-25T08:30:10.623Z,44.48
2023-03-25T08:32:38.632Z,42.98
2023-03-25T08:35:07.542Z,40.79
2023-03-25T08:37:35.514Z,41.51
2023-03-25T08:40:10.427Z,40.55
2023-03-25T08:42:38.294Z,39.39
2023-03-25T08:45:07.217Z,37.44
2023-03-25T08:47:34.437Z,39.03
2023-03-25T08:50:02.105Z,39.93
2023-03-25T08:52:29.631Z,38.94
2023-03-25T08:54:57.147Z,38.16
2023-03-25T08:57:24.509Z,40.01
2023-03-25T08:59:52.169Z,38.60
2023-03-25T09:02:19.916Z,39.76
2023-03-25T09:04:49.497Z,38.23
2023-03-25T09:07:19.877Z,37.30
2023-03-25T09:09:47.231Z,37.32
2023-03-25T09:12:14.327Z,36.35
2023-03-25T09:14:41.604Z,37.95
2023-03-25T09:17:10.365Z,39.32
2023-03-25T09:19:38.114Z,39.83
2023-03-25T09:22:06.796Z,39.87
2023-03-25T09:24:34.359Z,41.57
2023-03-25T09:27:03.247Z,41.98
2023-03-25T09:29:30.509Z,42.46
2023-03-25T09:31:58.508Z,43.45
2023-03-25T09:34:27.116Z,44.09
2023-03-25T09:36:56.145Z,42.38
2023-03-25T09:39:23.883Z,42.83
2023-03-25T09:42:28.510Z,42.04
2023-03-25T09:45:23.634Z,42.98
2023-03-25T09:48:17.107Z,44.67
2023-03-25T09:50:46.242Z,45.10
2023-03-25T09:53:31.663Z,47.60
2023-03-25T09:56:00.629Z,47.49
2023-03-25T09:58:42.064Z,45.81
2023-03-25T10:01:21.391Z,46.63
2023-03-25T10:04:39.257Z,49.70
2023-03-25T10:07:10.172Z,50.04
2023-03-25T10:09:49.110Z,47.79
2023-03-25T10:12:37.991Z,47.51
2023-03-25T10:15:25.412Z,47.12
2023-03-25T10:18:04.269Z,45.19
2023-03-25T10:20:51.702Z,44.75
2023-03-25T10:24:00.416Z,46.62
2023-03-25T10:27:04.119Z,44.90
2023-03-25T10:29:58.037Z,44.39
2023-03-25T10:32:59.762Z,44.03
2023-03-25T10:35:39.555Z,44.71
2023-03-25T10:38:26.925Z,43.72
2023-03-25T10:41:20.025Z,44.73
2023-03-25T10:43:47.073Z,46.12
2023-03-25T10:46:46.864Z,45.32
2023-03-25T10:49:23.958Z,44.52
2023-03-25T10:51:57.667Z,44.25
2023-03-25T10:54:32.095Z,44.10
2023-03-25T10:57:05.233Z,43.21
2023-03-25T10:59:50.279Z,42.85
2023-03-25T11:02:27.539Z,43.91
2023-03-25T11:05:00.311Z,42.75
2023-03-25T11:07:37.535Z,43.03
2023-03-25T11:10:32.165Z,41.64
2023-03-25T11:13:04.005Z,40.86
2023-03-25T11:15:39.067Z,40.11
2023-03-25T11:18:27.455Z,41.38
2023-03-25T11:21:09.568Z,41.33
2023-03-25T11:23:43.406Z,41.75
2023-03-25T11:26:23.748Z,41.93
2023-03-25T11:29:01.017Z,41.59
2023-03-25T11:31:33.377Z,40.21
2023-03-25T11:34:09.142Z,41.05
2023-03-25T11:36:47.448Z,40.82
2023-03-25T11:39:24.263Z,40.13
2023-03-25T11:41:52.884Z,39.40
2023-03-25T11:44:33.064Z,38.63
2023-03-25T11:47:09.710Z,38.95
2023-03-25T11:49:41.512Z,39.49
2023-03-25T11:52:24.367Z,39.98
2023-03-25T11:54:55.380Z,39.53
2023-03-25T11:57:32.809Z,40.04
2023-03-25T12:00:12.334Z,40.04
2023-03-25T12:02:41.172Z,40.68
2023-03-25T12:05:08.217Z,41.29
2023-03-25T12:07:51.539Z,42.07
2023-03-25T12:10:34.764Z,42.13
2023-03-25T12:13:27.364Z,43.62
2023-03-25T12:16:03.159Z,43.76
2023-03-25T12:19:21.074Z,43.35
2023-03-25T12:22:14.870Z,43.64
2023-03-25T12:25:08.334Z,44.38
2023-03-25T12:28:31.014Z,44.39
2023-03-25T12:31:51.415Z,44.19
2023-03-25T12:35:12.221Z,45.02
2023-03-25T12:37:48.091Z,46.50
2023-03-25T12:41:27.239Z,46.10
2023-03-25T12:44:14.076Z,46.48
2023-03-25T12:47:04.244Z,47.18
2023-03-25T12:50:01.991Z,47.18
2023-03-25T12:53:04.375Z,47.83
2023-03-25T12:56:23.822Z,48.00
2023-03-25T12:59:02.527Z,48.21
2023-03-25T13:01:58.771Z,48.53
2023-03-25T13:04:52.471Z,48.77
2023-03-25T13:07:28.736Z,49.49
2023-03-25T13:10:20.004Z,50.05
2023-03-25T13:12:58.053Z,49.20
2023-03-25T13:15:44.214Z,49.79
2023-03-25T13:18:26.146Z,50.13
2023-03-25T13:21:27.648Z,50.26
2023-03-25T13:24:23.292Z,49.54
2023-03-25T13:26:55.051Z,51.13
2023-03-25T13:29:46.741Z,49.84
2023-03-25T13:32:22.598Z,50.44
2023-03-25T13:35:02.290Z,50.01
2023-03-25T13:37:53.110Z,50.06
2023-03-25T13:40:31.652Z,49.17
2023-03-25T13:43:13.441Z,50.90
2023-03-25T13:46:05.678Z,51.03
2023-03-25T13:48:54.741Z,50.64
2023-03-25T13:51:22.444Z,50.72
2023-03-25T13:54:29.136Z,51.24
2023-03-25T13:57:22.907Z,50.81
2023-03-25T14:00:18.909Z,52.20
2023-03-25T14:03:16.983Z,52.17
2023-03-25T14:06:10.521Z,53.03
2023-03-25T14:09:23.430Z,53.64
2023-03-25T14:12:16.137Z,54.05
2023-03-25T14:14:58.191Z,53.73
2023-03-25T14:17:26.857Z,53.38
2023-03-25T14:19:58.376Z,52.26
2023-03-25T14:22:35.387Z,51.95
2023-03-25T14:25:02.675Z,50.86
2023-03-25T14:27:34.994Z,49.87
2023-03-25T14:30:26.855Z,50.50
2023-03-25T14:32:58.929Z,51.47
2023-03-25T14:35:32.703Z,51.43
2023-03-25T14:38:08.925Z,51.03
2023-03-25T14:43:40.409Z,51.44
2023-03-25T14:46:14.626Z,52.68
2023-03-25T14:48:50.276Z,53.30
2023-03-25T14:51:41.208Z,52.13
2023-03-25T14:54:31.786Z,51.96
2023-03-25T14:57:22.903Z,52.56
2023-03-25T14:59:54.248Z,53.81
2023-03-25T15:02:33.806Z,52.78
2023-03-25T15:05:15.234Z,52.14
2023-03-25T15:08:00.195Z,51.48
2023-03-25T15:11:06.592Z,51.12
2023-03-25T15:13:42.367Z,52.78
2023-03-25T15:16:38.586Z,51.98
2023-03-25T15:19:10.957Z,52.95
2023-03-25T15:22:07.718Z,53.50
2023-03-25T15:24:38.103Z,55.33
2023-03-25T15:27:34.087Z,56.75
2023-03-25T15:30:37.902Z,58.26
2023-03-25T15:33:11.231Z,59.81
2023-03-25T15:35:50.447Z,60.75
2023-03-25T15:38:38.844Z,62.19
2023-03-25T15:41:12.969Z,62.50
2023-03-25T15:44:25.409Z,63.44
2023-03-25T15:47:49.147Z,65.13
2023-03-25T15:50:49.871Z,64.76
2023-03-25T15:53:43.397Z,66.13
2023-03-25T15:56:42.358Z,67.50
2023-03-25T15:59:41.719Z,68.94
2023-03-25T16:02:33.260Z,69.53
2023-03-25T16:05:01.165Z,70.00
2023-03-25T16:07:33.059Z,69.99
2023-03-25T16:10:19.588Z,71.12
2023-03-25T16:12:50.201Z,71.87
2023-03-25T16:15:26.206Z,71.87
2023-03-25T16:17:54.318Z,71.37
2023-03-25T16:20:28.668Z,70.43
2023-03-25T16:22:59.777Z,70.84
2023-03-25T16:25:41.527Z,71.63
2023-03-25T16:28:18.275Z,72.69
2023-03-25T16:30:53.589Z,73.75
2023-03-25T16:33:31.668Z,74.38
2023-03-25T16:36:19.070Z,74.69
2023-03-25T16:38:46.538Z,75.53
2023-03-25T16:41:15.298Z,75.52
2023-03-25T16:43:43.708Z,75.80
2023-03-25T16:46:21.604Z,76.81
2023-03-25T16:48:53.841Z,76.95
2023-03-25T16:51:32.204Z,76.66
2023-03-25T16:53:59.639Z,76.72
2023-03-25T16:56:32.778Z,76.35
2023-03-25T16:59:22.791Z,76.97
2023-03-25T17:01:59.661Z,77.57
2023-03-25T17:04:47.413Z,77.36
2023-03-25T17:07:21.092Z,77.93
2023-03-25T17:09:52.900Z,78.60
2023-03-25T17:12:23.850Z,79.28
2023-03-25T17:14:58.561Z,79.45
2023-03-25T17:17:53.568Z,79.89
2023-03-25T17:20:37.469Z,79.88
2023-03-25T17:23:18.121Z,80.49
2023-03-25T17:26:07.447Z,80.12
2023-03-25T17:28:58.222Z,80.68
2023-03-25T17:31:30.775Z,81.36
2023-03-25T17:34:21.648Z,81.96
2023-03-25T17:36:57.890Z,82.06
2023-03-25T17:39:29.203Z,82.68
2023-03-25T17:42:01.373Z,82.75
2023-03-25T17:44:41.395Z,83.30
2023-03-25T17:47:14.657Z,83.53
2023-03-25T17:49:42.130Z,84.14
2023-03-25T17:52:09.609Z,84.23
2023-03-25T17:54:37.345Z,83.97
2023-03-25T17:57:12.668Z,83.66
2023-03-25T17:59:39.796Z,84.28
2023-03-25T18:02:16.523Z,84.84
2023-03-25T18:04:43.974Z,84.58
2023-03-25T18:07:11.162Z,85.27
2023-03-25T18:09:39.544Z,85.18
2023-03-25T18:12:07.129Z,84.76
2023-03-25T18:14:35.214Z,85.17
2023-03-25T18:17:04.155Z,85.56
2023-03-25T18:19:32.222Z,85.08
2023-03-25T18:22:13.886Z,85.29
2023-03-25T18:24:47.050Z,85.16
2023-03-25T18:27:14.692Z,84.88
2023-03-25T18:29:42.192Z,85.37
2023-03-25T18:32:09.389Z,84.33
2023-03-25T18:34:36.538Z,83.96
2023-03-25T18:37:03.868Z,82.98
2023-03-25T18:39:32.783Z,82.15
2023-03-25T18:41:59.927Z,83.09
2023-03-25T18:44:28.655Z,83.43
2023-03-25T18:46:55.834Z,82.88
2023-03-25T18:49:23.344Z,82.75
2023-03-25T18:51:50.733Z,82.07
2023-03-25T18:54:18.466Z,81.02
2023-03-25T18:56:45.986Z,79.97
2023-03-25T18:59:21.201Z,79.06
2023-03-25T19:01:48.314Z,78.78
2023-03-25T19:04:15.531Z,78.82
2023-03-25T19:06:43.048Z,78.31
2023-03-25T19:09:18.842Z,77.85
2023-03-25T19:11:47.270Z,77.93
2023-03-25T19:14:14.378Z,77.55
2023-03-25T19:16:44.313Z,78.37
2023-03-25T19:19:15.881Z,78.09
2023-03-25T19:21:42.890Z,77.91
2023-03-25T19:24:10.086Z,78.18
2023-03-25T19:26:39.346Z,77.40
2023-03-25T19:29:07.041Z,76.06
2023-03-25T19:31:34.671Z,76.48
2023-03-25T19:34:02.373Z,76.56
2023-03-25T19:36:34.651Z,76.32
2023-03-25T19:39:06.084Z,76.62
2023-03-25T19:41:35.023Z,75.90
2023-03-25T19:44:02.400Z,75.96
2023-03-25T19:46:31.790Z,76.16
2023-03-25T19:48:58.915Z,76.26
2023-03-25T19:51:25.966Z,76.79
2023-03-25T19:53:53.160Z,75.43
2023-03-25T19:56:20.228Z,74.18
2023-03-25T19:58:47.367Z,75.38
2023-03-25T20:01:14.589Z,75.49
2023-03-25T20:03:42.224Z,75.73
2023-03-25T20:06:09.538Z,76.16
2023-03-25T20:08:36.774Z,76.06
2023-03-25T20:11:12.055Z,77.73
2023-03-25T20:13:39.678Z,78.14
2023-03-25T20:16:08.472Z,79.44
2023-03-25T20:18:35.890Z,79.98
2023-03-25T20:21:06.582Z,81.11
2023-03-25T20:23:33.855Z,82.98
2023-03-25T20:26:01.471Z,83.03
2023-03-25T20:28:31.356Z,83.26
2023-03-25T20:30:58.668Z,83.30
2023-03-25T20:33:28.304Z,83.27
2023-03-25T20:35:55.945Z,82.79
2023-03-25T20:38:23.285Z,82.89
2023-03-25T20:40:54.714Z,83.67
2023-03-25T20:43:22.350Z,83.75
2023-03-25T20:45:53.913Z,83.59
2023-03-25T20:48:22.192Z,82.57
2023-03-25T20:50:49.946Z,82.50
2023-03-25T20:53:17.168Z,81.87
2023-03-25T20:55:45.116Z,82.63
2023-03-25T20:58:12.861Z,83.66
2023-03-25T21:00:40.009Z,83.52
2023-03-25T21:03:07.648Z,84.01
2023-03-25T21:05:39.306Z,84.98
2023-03-25T21:08:06.539Z,85.91
2023-03-25T21:10:33.977Z,85.70
2023-03-25T21:13:01.187Z,85.74
2023-03-25T21:15:28.742Z,86.68
2023-03-25T21:17:56.103Z,87.18
2023-03-25T21:20:24.129Z,88.00
2023-03-25T21:22:51.502Z,88.36
2023-03-25T21:25:18.916Z,88.82
2023-03-25T21:27:46.876Z,89.67
2023-03-25T21:30:15.222Z,88.69
2023-03-25T21:32:43.074Z,87.51
2023-03-25T21:35:10.647Z,87.83
2023-03-25T21:37:39.570Z,88.33
2023-03-25T21:40:11.093Z,89.21
2023-03-25T21:42:42.997Z,89.35
2023-03-25T21:45:13.667Z,89.27
2023-03-25T21:47:41.391Z,89.22
2023-03-25T21:50:11.779Z,88.53
2023-03-25T21:52:43.547Z,89.41
2023-03-25T21:55:11.362Z,89.82
2023-03-25T21:57:39.724Z,89.46
2023-03-25T22:00:08.613Z,89.65
2023-03-25T22:02:35.975Z,89.56
2023-03-25T22:05:03.924Z,89.10
2023-03-25T22:07:31.270Z,89.86
2023-03-25T22:09:58.885Z,90.32
2023-03-25T22:12:26.222Z,90.02
2023-03-25T22:14:53.321Z,88.95
2023-03-25T22:17:20.445Z,88.50
2023-03-25T22:19:48.943Z,88.04
2023-03-25T22:22:19.315Z,87.81
2023-03-25T22:24:47.097Z,88.02
2023-03-25T22:27:14.577Z,87.73
2023-03-25T22:29:45.123Z,87.82
2023-03-25T22:32:12.207Z,87.27
2023-03-25T22:34:39.703Z,87.30
2023-03-25T22:37:06.904Z,86.75
2023-03-25T22:39:34.020Z,86.05
2023-03-25T22:42:01.334Z,86.07
2023-03-25T22:44:28.948Z,86.01
2023-03-25T22:46:56.403Z,86.32
2023-03-25T22:49:23.586Z,87.08
2023-03-25T22:51:51.382Z,87.15
2023-03-25T22:54:18.696Z,86.15
2023-03-25T22:56:46.097Z,85.96
2023-03-25T22:59:14.849Z,85.78
2023-03-25T23:01:43.247Z,84.57
2023-03-25T23:04:10.792Z,85.83
2023-03-25T23:06:38.738Z,85.75
2023-03-25T23:09:08.832Z,86.15
2023-03-25T23:11:37.393Z,85.12
2023-03-25T23:14:09.280Z,85.33
2023-03-25T23:16:36.915Z,85.00
2023-03-25T23:19:06.877Z,85.33
2023-03-25T23:21:34.684Z,85.25
2023-03-25T23:24:04.032Z,85.92
2023-03-25T23:26:40.836Z,86.26
2023-03-25T23:29:11.694Z,85.82
2023-03-25T23:31:43.333Z,86.67
2023-03-25T23:34:16.806Z,87.84
2023-03-25T23:36:45.439Z,87.25
2023-03-25T23:39:17.207Z,87.85
2023-03-25T23:41:44.349Z,87.88
2023-03-25T23:44:11.852Z,88.60
2023-03-25T23:46:39.100Z,88.63
2023-03-25T23:49:06.728Z,88.40
2023-03-25T23:51:38.373Z,89.25
2023-03-25T23:54:09.769Z,89.89
2023-03-25T23:56:38.007Z,89.22
2023-03-25T23:59:06.672Z,89.16
